Time;durP1;ratioP1;P1;durP2;ratioP2;P2;SDS_P1;SDS_P2;PMS_P1;PMS_P2;Temp;Humidity;BMP_temperature;BMP_pressure;BME280_temperature;BME280_humidity;BME280_pressure;Samples;Min_cycle;Max_cycle;Signal;HPM_P1;HPM_P2
2022/12/10 00:01:38;;;;;;;57.10;23.60;;;;;;;-0.11;97.33;100111.45;104162;1300;73693;-74
2022/12/10 00:04:04;;;;;;;57.30;21.90;;;;;;;-0.13;97.29;100113.45;105146;1291;61675;-74
2022/12/10 00:06:33;;;;;;;54.90;22.70;;;;;;;-0.10;97.56;100117.23;105530;1293;59556;-74
2022/12/10 00:09:01;;;;;;;51.70;21.10;;;;;;;-0.06;97.67;100117.83;105328;1291;73846;-74
2022/12/10 00:11:27;;;;;;;55.30;22.50;;;;;;;-0.06;97.53;100119.02;104140;1294;70011;-74
2022/12/10 00:13:55;;;;;;;51.90;21.90;;;;;;;-0.07;97.43;100118.55;104965;1292;72843;-74
2022/12/10 00:16:24;;;;;;;58.00;22.10;;;;;;;-0.09;97.40;100118.52;104523;1294;61411;-74
2022/12/10 00:18:52;;;;;;;59.00;23.20;;;;;;;-0.09;97.38;100117.34;104568;1292;61174;-74
2022/12/10 00:21:21;;;;;;;55.90;22.80;;;;;;;-0.10;97.25;100116.33;103946;1294;73136;-74
2022/12/10 00:23:48;;;;;;;68.90;24.50;;;;;;;-0.10;97.40;100118.44;103781;1291;69731;-74
2022/12/10 00:26:18;;;;;;;61.70;23.60;;;;;;;-0.12;97.38;100121.36;103922;1291;72458;-74
2022/12/10 00:28:45;;;;;;;56.80;22.20;;;;;;;-0.11;97.44;100120.13;103591;1301;61791;-74
2022/12/10 00:31:15;;;;;;;59.60;24.40;;;;;;;-0.12;97.52;100120.31;104011;1295;61277;-73
2022/12/10 00:33:43;;;;;;;59.20;23.70;;;;;;;-0.12;97.62;100122.04;103974;1299;73413;-74
2022/12/10 00:36:15;;;;;;;59.50;25.20;;;;;;;-0.12;97.51;100118.23;104340;1299;70611;-75
2022/12/10 00:38:43;;;;;;;65.20;25.60;;;;;;;-0.11;97.54;100123.25;104459;1292;71126;-75
2022/12/10 00:41:12;;;;;;;64.60;26.70;;;;;;;-0.12;97.54;100125.02;103987;1292;61296;-74
2022/12/10 00:43:39;;;;;;;61.20;25.60;;;;;;;-0.11;97.41;100131.07;103695;1299;61220;-74
2022/12/10 00:46:06;;;;;;;64.50;26.20;;;;;;;-0.12;97.50;100130.98;103554;1295;74422;-74
2022/12/10 00:48:33;;;;;;;57.60;24.80;;;;;;;-0.12;97.58;100133.92;103783;1283;70985;-74
2022/12/10 00:51:07;;;;;;;57.90;24.50;;;;;;;-0.11;97.66;100135.86;104110;1294;71940;-74
2022/12/10 00:53:36;;;;;;;56.50;24.90;;;;;;;-0.12;97.53;100137.71;104022;1294;63426;-74
2022/12/10 00:56:03;;;;;;;56.30;23.90;;;;;;;-0.14;97.39;100139.09;104079;1294;61432;-74
2022/12/10 00:58:31;;;;;;;51.00;21.70;;;;;;;-0.14;97.47;100137.58;104295;1292;74606;-74
2022/12/10 01:01:14;;;;;;;51.50;22.20;;;;;;;-0.16;97.30;100136.98;104074;1295;71296;-75
2022/12/10 01:03:41;;;;;;;48.90;22.00;;;;;;;-0.21;97.11;100137.34;103644;1284;72464;-75
2022/12/10 01:06:32;;;;;;;48.20;22.30;;;;;;;-0.25;97.01;100139.27;103785;1293;61216;-73
2022/12/10 01:09:02;;;;;;;44.30;21.00;;;;;;;-0.29;96.95;100140.30;103723;1288;59556;-73
2022/12/10 01:11:32;;;;;;;47.90;22.00;;;;;;;-0.33;97.06;100140.75;104508;1286;73099;-73
2022/12/10 01:13:59;;;;;;;48.60;22.10;;;;;;;-0.35;97.17;100140.88;104223;1291;69757;-73
2022/12/10 01:16:26;;;;;;;48.20;22.20;;;;;;;-0.36;97.14;100139.95;103988;1299;71245;-74
2022/12/10 01:18:58;;;;;;;53.30;23.00;;;;;;;-0.35;97.29;100145.96;104199;1296;61475;-74
2022/12/10 01:21:26;;;;;;;47.60;22.50;;;;;;;-0.34;97.18;100148.50;103774;1285;61201;-73
2022/12/10 01:23:53;;;;;;;48.40;23.30;;;;;;;-0.36;97.23;100147.08;103659;1290;74591;-73
2022/12/10 01:26:22;;;;;;;46.40;21.60;;;;;;;-0.37;97.26;100154.10;103830;1290;71127;-73
2022/12/10 01:28:50;;;;;;;45.00;21.40;;;;;;;-0.35;97.32;100159.17;103877;1301;73276;-74
2022/12/10 01:31:20;;;;;;;45.50;20.40;;;;;;;-0.36;97.17;100157.16;104065;1300;61360;-75
2022/12/10 01:33:47;;;;;;;44.30;21.10;;;;;;;-0.38;97.06;100154.89;104518;1292;61284;-73
2022/12/10 01:36:19;;;;;;;49.70;22.30;;;;;;;-0.40;97.00;100159.34;103657;1292;74459;-73
2022/12/10 01:38:47;;;;;;;47.60;22.40;;;;;;;-0.41;97.09;100162.70;103996;1301;71520;-73
2022/12/10 01:41:22;;;;;;;44.40;21.20;;;;;;;-0.41;97.10;100158.67;103807;1299;71863;-73
2022/12/10 01:44:00;;;;;;;44.30;20.50;;;;;;;-0.39;97.14;100165.67;103761;1301;61355;-74
2022/12/10 01:46:30;;;;;;;47.10;20.60;;;;;;;-0.38;97.12;100166.70;104050;1293;61226;-73
2022/12/10 01:48:57;;;;;;;45.10;20.70;;;;;;;-0.38;96.99;100173.26;104507;1291;73196;-73
2022/12/10 01:51:26;;;;;;;45.20;20.40;;;;;;;-0.41;96.87;100173.27;104836;1290;70183;-73
2022/12/10 01:53:53;;;;;;;41.50;19.70;;;;;;;-0.43;96.76;100179.36;103471;1292;72651;-73
2022/12/10 01:56:20;;;;;;;39.70;18.30;;;;;;;-0.44;96.75;100177.05;103796;1293;59641;-73
2022/12/10 01:58:53;;;;;;;42.90;19.60;;;;;;;-0.46;96.76;100175.73;103966;1293;61394;-73
2022/12/10 02:01:41;;;;;;;43.70;20.10;;;;;;;-0.46;96.89;100174.70;103840;1292;74905;-73
2022/12/10 02:04:39;;;;;;;40.10;19.50;;;;;;;-0.49;96.61;100175.80;103710;1299;70084;-74
2022/12/10 02:07:26;;;;;;;42.30;19.80;;;;;;;-0.54;96.43;100176.93;104307;1299;72654;-74
2022/12/10 02:09:58;;;;;;;43.40;19.70;;;;;;;-0.56;96.58;100174.49;104142;1291;61318;-73
2022/12/10 02:12:47;;;;;;;48.70;21.60;;;;;;;-0.59;96.66;100173.80;104470;1300;59338;-74
2022/12/10 02:15:23;;;;;;;39.50;19.90;;;;;;;-0.60;96.69;100172.69;104588;1291;74656;-73
2022/12/10 02:17:54;;;;;;;40.90;19.60;;;;;;;-0.61;96.58;100171.03;103385;1294;327122;-73
2022/12/10 02:20:41;;;;;;;41.30;17.90;;;;;;;-0.61;96.68;100171.90;103826;1293;71356;-73
2022/12/10 02:23:19;;;;;;;40.20;18.30;;;;;;;-0.63;96.63;100171.64;103804;1299;61266;-74
2022/12/10 02:25:58;;;;;;;38.00;16.90;;;;;;;-0.64;96.53;100170.02;104527;1292;59713;-75
2022/12/10 02:28:54;;;;;;;35.50;17.40;;;;;;;-0.65;96.48;100170.28;104269;1299;73758;-73
2022/12/10 02:31:26;;;;;;;39.90;18.30;;;;;;;-0.66;96.63;100164.63;103871;1299;72887;-73
2022/12/10 02:33:58;;;;;;;36.30;18.10;;;;;;;-0.64;96.61;100158.94;103963;1292;73081;-73
2022/12/10 02:36:29;;;;;;;35.40;17.90;;;;;;;-0.64;96.52;100158.91;103923;1295;61799;-73
2022/12/10 02:38:59;;;;;;;37.60;18.90;;;;;;;-0.65;96.50;100154.97;103633;1300;59276;-73
2022/12/10 02:41:32;;;;;;;39.50;19.50;;;;;;;-0.65;96.42;100158.28;104064;1291;72326;-73
2022/12/10 02:44:03;;;;;;;40.30;18.80;;;;;;;-0.65;96.47;100152.20;104628;1292;69817;-74
2022/12/10 02:46:32;;;;;;;35.00;17.30;;;;;;;-0.65;96.42;100154.77;104000;1299;71401;-74
2022/12/10 02:49:01;;;;;;;41.40;17.30;;;;;;;-0.66;96.30;100159.06;104077;1299;60438;-73
2022/12/10 02:51:28;;;;;;;38.60;17.90;;;;;;;-0.70;96.09;100161.77;104662;1291;61979;-73
2022/12/10 02:54:00;;;;;;;37.00;17.90;;;;;;;-0.73;96.00;100160.32;104530;1294;59510;-73
2022/12/10 02:56:34;;;;;;;40.70;18.20;;;;;;;-0.73;96.26;100165.15;103623;1292;69083;-73
2022/12/10 02:59:16;;;;;;;41.90;18.60;;;;;;;-0.73;96.21;100163.42;104092;1284;71108;-73
2022/12/10 03:02:03;;;;;;;42.40;18.60;;;;;;;-0.74;96.15;100162.96;104496;1293;61279;-73
2022/12/10 03:04:42;;;;;;;43.00;19.20;;;;;;;-0.71;96.31;100164.28;105401;1291;61970;-73
2022/12/10 03:07:22;;;;;;;43.80;17.80;;;;;;;-0.69;96.31;100167.13;103904;1292;73460;-73
2022/12/10 03:09:55;;;;;;;45.40;19.00;;;;;;;-0.71;96.07;100165.50;104021;1294;69604;-73
2022/12/10 03:12:28;;;;;;;46.30;18.00;;;;;;;-0.73;96.00;100166.23;103972;1300;71474;-74
2022/12/10 03:15:05;;;;;;;44.20;18.80;;;;;;;-0.74;96.05;100166.65;104839;1292;61840;-74
2022/12/10 03:17:32;;;;;;;50.30;19.20;;;;;;;-0.74;96.11;100166.65;103752;1294;61231;-74
2022/12/10 03:20:00;;;;;;;47.30;18.20;;;;;;;-0.75;96.03;100161.67;104420;1294;74025;-74
2022/12/10 03:22:29;;;;;;;44.90;18.40;;;;;;;-0.77;96.02;100163.20;104059;1297;69332;-74
2022/12/10 03:24:57;;;;;;;46.30;19.10;;;;;;;-0.79;96.11;100166.64;104037;1299;71177;-73
2022/12/10 03:27:27;;;;;;;43.10;18.10;;;;;;;-0.79;96.25;100169.29;104497;1298;62186;-73
2022/12/10 03:29:57;;;;;;;49.00;19.20;;;;;;;-0.80;96.17;100162.05;104109;1291;61679;-73
2022/12/10 03:32:27;;;;;;;45.60;18.30;;;;;;;-0.82;95.92;100162.83;103955;1293;73807;-73
2022/12/10 03:34:56;;;;;;;45.60;19.20;;;;;;;-0.81;96.10;100163.64;103771;1299;69782;-73
2022/12/10 03:37:25;;;;;;;37.60;16.40;;;;;;;-0.79;96.31;100162.17;104398;1290;72438;-73
2022/12/10 03:39:52;;;;;;;44.10;18.70;;;;;;;-0.83;96.06;100164.16;104336;1293;61753;-73
2022/12/10 03:42:18;;;;;;;41.40;17.00;;;;;;;-0.86;96.17;100163.14;104109;1294;59347;-73
2022/12/10 03:44:45;;;;;;;37.20;15.60;;;;;;;-0.86;96.32;100163.14;104385;1286;61353;-73
2022/12/10 03:47:14;;;;;;;31.00;13.80;;;;;;;-0.89;96.31;100160.56;104057;1292;59302;-73
2022/12/10 03:49:42;;;;;;;35.80;15.80;;;;;;;-0.91;96.14;100161.99;103928;1283;71224;-73
2022/12/10 03:52:09;;;;;;;33.80;16.30;;;;;;;-0.90;96.29;100165.38;104111;1299;61275;-73
2022/12/10 03:54:35;;;;;;;28.70;13.90;;;;;;;-0.88;96.44;100163.32;104311;1293;61779;-73
2022/12/10 03:57:02;;;;;;;28.80;13.80;;;;;;;-0.87;96.20;100163.58;104121;1295;61302;-73
2022/12/10 03:59:29;;;;;;;30.80;14.80;;;;;;;-0.89;96.11;100161.82;103880;1291;70899;-73
2022/12/10 04:01:55;;;;;;;30.30;14.40;;;;;;;-0.94;95.98;100163.91;104398;1299;60643;-73
2022/12/10 04:04:22;;;;;;;26.80;12.00;;;;;;;-0.98;96.05;100162.63;103574;1290;61649;-73
2022/12/10 04:06:48;;;;;;;26.20;12.60;;;;;;;-1.04;95.82;100166.55;103814;1299;61382;-73
2022/12/10 04:09:15;;;;;;;30.50;14.30;;;;;;;-1.08;96.05;100168.96;103981;1291;61311;-73
2022/12/10 04:11:43;;;;;;;28.10;13.10;;;;;;;-1.10;96.24;100172.94;104625;1291;69618;-74
2022/12/10 04:16:57;;;;;;;30.30;14.30;;;;;;;-1.16;96.45;100176.80;103720;1299;61199;-73
2022/12/10 04:19:24;;;;;;;31.30;14.80;;;;;;;-1.15;96.44;100181.64;103918;1292;61386;-73
2022/12/10 04:27:35;;;;;;;30.30;14.50;;;;;;;-1.07;96.62;100187.66;103748;1293;72565;-73
2022/12/10 04:30:02;;;;;;;27.60;13.40;;;;;;;-1.03;96.69;100184.52;104550;1291;62181;-73
2022/12/10 04:32:29;;;;;;;23.60;11.40;;;;;;;-1.07;96.21;100181.93;103636;1302;59927;-74
2022/12/10 04:34:56;;;;;;;27.40;13.20;;;;;;;-1.11;96.21;100186.52;103896;1291;74504;-74
2022/12/10 04:37:24;;;;;;;22.70;11.20;;;;;;;-1.09;96.51;100186.56;104327;1300;69538;-75
2022/12/10 04:39:51;;;;;;;24.10;12.70;;;;;;;-1.05;96.57;100184.39;104017;1293;71166;-74
2022/12/10 04:42:18;;;;;;;22.10;11.80;;;;;;;-1.02;96.42;100183.10;103901;1294;62042;-74
2022/12/10 04:44:45;;;;;;;21.60;11.60;;;;;;;-0.99;96.42;100181.84;104188;1290;61150;-74
2022/12/10 04:47:12;;;;;;;23.40;11.90;;;;;;;-0.96;96.40;100183.00;104250;1299;61310;-74
2022/12/10 04:49:39;;;;;;;18.90;10.10;;;;;;;-0.95;96.26;100186.42;104215;1292;69831;-74
2022/12/10 04:52:08;;;;;;;18.70;10.80;;;;;;;-0.96;95.96;100180.90;104448;1294;72639;-74
2022/12/10 04:54:34;;;;;;;21.60;10.60;;;;;;;-0.98;95.80;100181.44;103733;1293;61327;-74
2022/12/10 04:57:05;;;;;;;24.40;12.50;;;;;;;-1.01;95.68;100176.80;104380;1292;61423;-74
2022/12/10 04:59:31;;;;;;;20.50;11.20;;;;;;;-1.05;95.69;100177.38;103976;1299;74965;-74
2022/12/10 05:01:58;;;;;;;22.10;10.70;;;;;;;-1.06;95.73;100185.33;104675;1299;61399;-74
2022/12/10 05:04:24;;;;;;;18.70;9.20;;;;;;;-1.07;95.68;100185.00;103620;1292;59309;-74
2022/12/10 05:06:51;;;;;;;19.10;10.10;;;;;;;-1.09;95.50;100186.35;103680;1295;61546;-74
2022/12/10 05:09:17;;;;;;;20.40;10.50;;;;;;;-1.11;95.45;100188.62;104016;1301;59410;-74
2022/12/10 05:11:44;;;;;;;20.30;10.80;;;;;;;-1.11;95.46;100198.20;104130;1294;61366;-74
2022/12/10 05:14:13;;;;;;;20.30;10.70;;;;;;;-1.12;95.42;100197.89;103988;1292;61181;-74
2022/12/10 05:16:40;;;;;;;20.40;10.50;;;;;;;-1.13;95.34;100193.92;103916;1293;72422;-74
2022/12/10 05:19:08;;;;;;;18.00;9.70;;;;;;;-1.13;95.49;100194.67;104356;1294;61765;-74
2022/12/10 05:24:19;;;;;;;18.30;10.50;;;;;;;-1.16;95.04;100195.79;103840;1293;74130;-73
2022/12/10 05:26:50;;;;;;;19.80;11.00;;;;;;;-1.16;95.15;100190.40;103898;1277;61137;-73
2022/12/10 05:29:18;;;;;;;18.20;9.20;;;;;;;-1.17;95.16;100187.02;104068;1289;70871;-73
2022/12/10 05:31:44;;;;;;;19.50;10.10;;;;;;;-1.22;94.75;100190.81;103939;1293;61355;-73
2022/12/10 05:34:11;;;;;;;18.00;10.10;;;;;;;-1.25;94.79;100195.14;103826;1300;59614;-73
2022/12/10 05:36:37;;;;;;;17.50;9.40;;;;;;;-1.28;94.77;100194.33;104221;1299;61893;-73
2022/12/10 05:39:04;;;;;;;17.80;9.30;;;;;;;-1.29;94.93;100189.55;104163;1293;61313;-73
2022/12/10 05:41:35;;;;;;;15.90;8.90;;;;;;;-1.33;94.77;100188.98;103924;1294;71356;-73
2022/12/10 05:44:02;;;;;;;20.00;9.70;;;;;;;-1.38;94.78;100189.52;103917;1291;62642;-73
2022/12/10 05:46:31;;;;;;;21.00;10.90;;;;;;;-1.46;94.75;100195.67;104023;1293;61165;-73
2022/12/10 05:49:00;;;;;;;19.30;10.70;;;;;;;-1.48;94.76;100200.63;103938;1293;73233;-73
2022/12/10 05:51:29;;;;;;;16.90;9.10;;;;;;;-1.47;95.06;100200.91;103776;1291;70040;-73
2022/12/10 05:53:58;;;;;;;17.10;9.50;;;;;;;-1.45;95.07;100204.09;104436;1293;71664;-73
2022/12/10 05:56:25;;;;;;;16.60;8.80;;;;;;;-1.43;94.98;100208.60;104201;1291;61385;-73
2022/12/10 05:58:55;;;;;;;17.00;9.40;;;;;;;-1.42;94.90;100209.41;103956;1299;61365;-73
2022/12/10 06:01:24;;;;;;;17.30;9.30;;;;;;;-1.41;94.92;100209.55;104134;1294;72843;-73
2022/12/10 06:03:52;;;;;;;19.90;10.40;;;;;;;-1.38;95.11;100212.45;103997;1291;69898;-73
2022/12/10 06:06:28;;;;;;;19.20;10.40;;;;;;;-1.34;95.13;100211.98;103694;1301;71734;-73
2022/12/10 06:08:55;;;;;;;17.40;9.40;;;;;;;-1.31;95.12;100213.46;104228;1293;60441;-73
2022/12/10 06:11:23;;;;;;;17.90;9.20;;;;;;;-1.33;94.73;100214.99;104644;1293;60002;-73
2022/12/10 06:13:49;;;;;;;16.70;8.80;;;;;;;-1.35;94.57;100212.54;104194;1300;74896;-73
2022/12/10 06:16:22;;;;;;;17.90;9.60;;;;;;;-1.35;94.56;100211.55;104139;1286;70211;-73
2022/12/10 06:18:49;;;;;;;18.80;9.60;;;;;;;-1.33;94.82;100216.39;103865;1291;72216;-73
2022/12/10 06:21:17;;;;;;;16.80;8.70;;;;;;;-1.30;94.68;100220.38;103843;1284;61387;-73
2022/12/10 06:23:44;;;;;;;20.90;11.60;;;;;;;-1.35;94.29;100222.13;103747;1296;59814;-73
2022/12/10 06:26:13;;;;;;;21.10;12.10;;;;;;;-1.38;94.17;100220.95;104150;1293;74457;-73
2022/12/10 06:28:40;;;;;;;20.10;11.20;;;;;;;-1.37;94.60;100225.70;104365;1299;69848;-73
2022/12/10 06:31:07;;;;;;;21.70;11.50;;;;;;;-1.37;94.59;100228.29;104040;1293;72082;-73
2022/12/10 06:33:33;;;;;;;24.60;12.10;;;;;;;-1.34;94.75;100233.49;103903;1301;59501;-73
2022/12/10 06:36:07;;;;;;;25.00;13.00;;;;;;;-1.33;94.76;100233.71;103998;1296;61390;-73
2022/12/10 06:38:35;;;;;;;27.50;13.90;;;;;;;-1.30;94.75;100234.24;103948;1297;75525;-73
2022/12/10 06:41:05;;;;;;;29.40;14.10;;;;;;;-1.28;94.92;100237.52;103723;1293;68576;-74
2022/12/10 06:43:31;;;;;;;28.50;13.60;;;;;;;-1.27;94.80;100239.70;103863;1297;72627;-74
2022/12/10 06:45:58;;;;;;;30.50;15.10;;;;;;;-1.26;94.89;100239.46;104209;1294;61371;-73
2022/12/10 06:48:24;;;;;;;29.20;13.90;;;;;;;-1.24;94.80;100238.81;104077;1299;61190;-74
2022/12/10 06:50:51;;;;;;;29.80;14.80;;;;;;;-1.21;95.02;100238.27;104047;1291;61234;-74
2022/12/10 06:53:18;;;;;;;27.20;13.30;;;;;;;-1.18;94.86;100238.94;103770;1285;61464;-74
2022/12/10 06:55:44;;;;;;;31.60;14.30;;;;;;;-1.17;94.74;100239.55;104119;1293;71696;-74
2022/12/10 06:58:11;;;;;;;30.60;14.80;;;;;;;-1.17;94.75;100239.71;104098;1299;61399;-75
2022/12/10 07:00:37;;;;;;;30.30;15.40;;;;;;;-1.16;94.67;100241.54;105150;1284;59208;-73
2022/12/10 07:03:04;;;;;;;28.10;13.90;;;;;;;-1.12;94.71;100244.08;104070;1291;61254;-74
2022/12/10 07:05:30;;;;;;;27.90;14.00;;;;;;;-1.11;94.75;100240.82;104389;1293;70267;-74
2022/12/10 07:07:57;;;;;;;26.70;13.40;;;;;;;-1.08;94.73;100239.79;104673;1293;61154;-74
2022/12/10 07:10:23;;;;;;;30.20;13.90;;;;;;;-1.07;94.59;100241.26;104011;1294;61449;-73
2022/12/10 07:12:50;;;;;;;28.00;13.60;;;;;;;-1.07;94.52;100245.25;104040;1301;61768;-74
2022/12/10 07:15:16;;;;;;;30.50;13.70;;;;;;;-1.08;94.27;100250.18;103963;1292;61285;-74
2022/12/10 07:17:43;;;;;;;28.70;13.90;;;;;;;-1.09;94.31;100251.62;104256;1293;59369;-74
2022/12/10 07:20:11;;;;;;;26.40;13.50;;;;;;;-1.09;94.29;100251.49;103642;1299;61396;-73
2022/12/10 07:22:38;;;;;;;28.60;13.70;;;;;;;-1.10;94.32;100252.91;104011;1293;61351;-73
2022/12/10 07:25:05;;;;;;;24.90;13.10;;;;;;;-1.09;94.18;100254.45;104168;1293;61378;-74
2022/12/10 07:27:32;;;;;;;25.60;13.20;;;;;;;-1.10;94.23;100258.83;104767;1299;74109;-74
2022/12/10 07:29:58;;;;;;;26.90;13.20;;;;;;;-1.11;93.98;100262.89;103877;1299;62205;-74
2022/12/10 07:32:26;;;;;;;26.60;13.30;;;;;;;-1.13;94.05;100263.70;103840;1285;61679;-74
2022/12/10 07:34:53;;;;;;;27.60;13.70;;;;;;;-1.14;94.10;100267.94;103926;1293;61907;-74
2022/12/10 07:37:19;;;;;;;28.40;14.10;;;;;;;-1.12;94.12;100268.73;103836;1291;61248;-74
2022/12/10 07:39:46;;;;;;;24.00;12.80;;;;;;;-1.11;94.15;100267.60;103480;1293;61313;-74
2022/12/10 07:42:12;;;;;;;25.80;13.20;;;;;;;-1.11;94.24;100270.52;103819;1292;59374;-74
2022/12/10 07:44:39;;;;;;;25.70;12.80;;;;;;;-1.09;94.37;100277.00;104040;1299;61395;-74
2022/12/10 07:47:05;;;;;;;26.70;12.60;;;;;;;-1.08;94.19;100279.19;104099;1291;61394;-74
2022/12/10 07:49:31;;;;;;;26.60;12.80;;;;;;;-1.06;94.17;100283.89;105516;1290;59001;-74
2022/12/10 07:51:58;;;;;;;26.00;13.00;;;;;;;-1.04;94.16;100280.77;105640;1286;59603;-74
2022/12/10 07:54:24;;;;;;;30.20;14.40;;;;;;;-1.04;94.06;100282.53;105826;1284;59003;-76
2022/12/10 07:56:51;;;;;;;28.30;14.00;;;;;;;-1.02;94.19;100281.65;105791;1291;58954;-76
2022/12/10 07:59:17;;;;;;;29.90;14.50;;;;;;;-0.96;94.23;100281.06;105658;1291;59086;-76
2022/12/10 08:01:44;;;;;;;29.80;14.60;;;;;;;-0.92;94.09;100285.80;105743;1291;59156;-76
2022/12/10 08:04:10;;;;;;;30.00;14.80;;;;;;;-0.90;93.94;100289.10;105540;1291;59007;-75
2022/12/10 08:06:36;;;;;;;30.70;14.70;;;;;;;-0.89;93.72;100288.52;104894;1293;61408;-75
2022/12/10 08:09:03;;;;;;;33.00;15.80;;;;;;;-0.88;93.66;100292.41;103866;1290;61223;-75
2022/12/10 08:11:29;;;;;;;32.00;16.30;;;;;;;-0.85;93.72;100288.95;103890;1286;61334;-74
2022/12/10 08:13:56;;;;;;;30.10;16.10;;;;;;;-0.83;93.51;100291.07;103320;1299;62926;-74
2022/12/10 08:16:26;;;;;;;28.60;14.80;;;;;;;-0.83;93.57;100289.46;102888;1284;61662;-74
2022/12/10 08:18:55;;;;;;;27.90;14.90;;;;;;;-0.81;93.73;100287.63;102572;1300;71238;-76
2022/12/10 08:21:25;;;;;;;32.90;15.20;;;;;;;-0.77;93.80;100286.18;103897;1291;72609;-75
2022/12/10 08:23:51;;;;;;;30.00;15.40;;;;;;;-0.75;93.77;100286.15;103965;1293;61270;-75
2022/12/10 08:26:24;;;;;;;32.00;16.20;;;;;;;-0.75;93.63;100286.89;102927;1293;61271;-75
2022/12/10 08:28:51;;;;;;;31.10;14.70;;;;;;;-0.75;93.60;100290.52;103186;1299;73266;-75
2022/12/10 08:31:19;;;;;;;30.40;15.20;;;;;;;-0.75;93.47;100290.85;103478;1299;70329;-73
2022/12/10 08:33:46;;;;;;;32.00;16.00;;;;;;;-0.73;93.58;100292.45;103628;1291;73280;-75
2022/12/10 08:36:15;;;;;;;29.90;14.20;;;;;;;-0.69;93.85;100295.77;102695;1301;61324;-75
2022/12/10 08:38:43;;;;;;;30.50;16.10;;;;;;;-0.66;93.90;100300.25;103305;1292;61222;-75
2022/12/10 08:41:13;;;;;;;28.80;14.40;;;;;;;-0.65;93.65;100304.34;104675;1284;74432;-74
2022/12/10 08:43:40;;;;;;;31.00;14.60;;;;;;;-0.66;93.52;100306.48;103229;1299;71686;-75
2022/12/10 08:46:11;;;;;;;32.50;15.50;;;;;;;-0.66;93.67;100309.11;103014;1299;73193;-75
2022/12/10 08:48:38;;;;;;;31.10;14.60;;;;;;;-0.64;93.56;100313.83;104365;1293;61302;-75
2022/12/10 08:51:06;;;;;;;29.30;15.00;;;;;;;-0.65;93.55;100313.89;103902;1301;61371;-75
2022/12/10 08:53:34;;;;;;;30.50;15.60;;;;;;;-0.63;93.68;100313.70;104703;1299;74238;-75
2022/12/10 08:56:00;;;;;;;32.00;15.40;;;;;;;-0.59;93.61;100312.60;104345;1291;70965;-75
2022/12/10 08:58:27;;;;;;;30.10;14.50;;;;;;;-0.56;93.52;100310.48;105387;1294;61255;-75
2022/12/10 09:00:53;;;;;;;28.90;14.30;;;;;;;-0.53;93.46;100310.61;103884;1291;61332;-75
2022/12/10 09:03:20;;;;;;;27.40;14.10;;;;;;;-0.52;93.48;100310.19;104483;1293;61532;-75
2022/12/10 09:05:46;;;;;;;29.00;14.90;;;;;;;-0.52;93.11;100308.23;104437;1291;61383;-75
2022/12/10 09:08:13;;;;;;;30.20;14.40;;;;;;;-0.54;92.96;100312.92;104749;1285;60165;-75
2022/12/10 09:10:40;;;;;;;28.80;13.90;;;;;;;-0.54;93.07;100316.38;104101;1299;71132;-77
2022/12/10 09:13:07;;;;;;;28.70;13.80;;;;;;;-0.55;92.86;100317.15;103517;1294;61335;-75
2022/12/10 09:15:33;;;;;;;26.20;13.80;;;;;;;-0.55;92.97;100318.16;104104;1288;61241;-75
2022/12/10 09:18:00;;;;;;;26.00;13.50;;;;;;;-0.56;92.86;100318.45;104698;1291;74436;-75
2022/12/10 09:20:26;;;;;;;25.90;13.30;;;;;;;-0.55;92.96;100323.08;103537;1296;61035;-75
2022/12/10 09:22:53;;;;;;;27.40;13.10;;;;;;;-0.54;93.07;100327.29;103916;1294;61389;-75
2022/12/10 09:25:21;;;;;;;26.20;13.40;;;;;;;-0.51;93.12;100324.30;103506;1300;61380;-75
2022/12/10 09:27:48;;;;;;;24.50;12.80;;;;;;;-0.49;93.06;100325.23;103834;1299;61705;-75
2022/12/10 09:30:15;;;;;;;26.30;13.90;;;;;;;-0.51;92.88;100324.68;103996;1294;74157;-75
2022/12/10 09:32:42;;;;;;;28.70;14.60;;;;;;;-0.54;92.79;100328.33;104525;1299;69800;-75
2022/12/10 09:35:08;;;;;;;28.60;14.00;;;;;;;-0.52;92.96;100333.77;103910;1292;60999;-74
2022/12/10 09:37:35;;;;;;;27.30;13.60;;;;;;;-0.53;92.76;100334.54;105080;1283;59333;-74
2022/12/10 09:40:03;;;;;;;24.40;12.60;;;;;;;-0.52;92.81;100336.23;104833;1291;61460;-74
2022/12/10 09:42:47;;;;;;;27.60;13.60;;;;;;;-0.53;92.81;100334.70;104624;1293;73099;-74
2022/12/10 09:45:32;;;;;;;23.90;11.60;;;;;;;-0.52;92.83;100331.84;104953;1294;70924;-75
2022/12/10 09:48:40;;;;;;;22.90;12.10;;;;;;;-0.49;92.84;100329.75;104880;1291;71234;-75
2022/12/10 09:51:26;;;;;;;24.10;12.20;;;;;;;-0.46;92.66;100324.50;105220;1290;59849;-75
2022/12/10 09:53:58;;;;;;;23.50;12.40;;;;;;;-0.46;92.45;100328.11;104876;1291;59851;-75
2022/12/10 09:56:38;;;;;;;22.90;11.70;;;;;;;-0.44;92.43;100328.48;105252;1291;75586;-75
2022/12/10 09:59:34;;;;;;;20.40;11.10;;;;;;;-0.41;92.37;100331.91;104833;1293;70854;-75
2022/12/10 10:02:04;;;;;;;20.50;11.20;;;;;;;-0.38;92.25;100330.73;105258;1297;71101;-75
2022/12/10 10:04:30;;;;;;;22.30;11.30;;;;;;;-0.37;92.10;100334.40;104473;1293;61272;-74
2022/12/10 10:06:57;;;;;;;21.40;11.50;;;;;;;-0.33;92.15;100330.34;104605;1292;59661;-75
2022/12/10 10:09:24;;;;;;;23.20;11.90;;;;;;;-0.30;92.11;100334.80;105238;1288;73060;-74
2022/12/10 10:11:50;;;;;;;20.90;11.50;;;;;;;-0.29;92.22;100333.27;105119;1287;69658;-74
2022/12/10 10:14:28;;;;;;;20.10;11.20;;;;;;;-0.29;91.66;100334.88;104728;1285;59043;-75
2022/12/10 10:17:03;;;;;;;21.40;11.70;;;;;;;-0.30;91.56;100334.59;104379;1291;61380;-74
2022/12/10 10:19:35;;;;;;;20.10;11.10;;;;;;;-0.30;91.51;100336.49;104458;1299;61282;-75
2022/12/10 10:22:03;;;;;;;23.30;12.30;;;;;;;-0.33;91.22;100334.27;104099;1291;73937;-75
2022/12/10 10:24:36;;;;;;;22.50;11.80;;;;;;;-0.34;91.20;100335.06;104166;1291;69912;-75
2022/12/10 10:27:23;;;;;;;24.40;13.40;;;;;;;-0.34;91.33;100334.24;104343;1290;71109;-74
2022/12/10 10:29:52;;;;;;;25.00;14.10;;;;;;;-0.34;91.27;100335.45;104313;1291;61295;-74
2022/12/10 10:32:35;;;;;;;24.60;13.90;;;;;;;-0.35;91.29;100336.17;104397;1294;61274;-74
2022/12/10 10:35:03;;;;;;;25.00;13.10;;;;;;;-0.33;91.43;100333.11;104588;1296;74739;-75
2022/12/10 10:37:40;;;;;;;20.00;10.90;;;;;;;-0.31;91.40;100336.95;104554;1292;68873;-74
2022/12/10 10:40:22;;;;;;;20.20;10.80;;;;;;;-0.33;91.01;100337.92;104233;1293;70309;-74
2022/12/10 10:42:51;;;;;;;19.10;9.90;;;;;;;-0.32;91.27;100338.75;104069;1294;59835;-75
2022/12/10 10:45:29;;;;;;;18.90;11.10;;;;;;;-0.31;91.17;100337.14;104053;1291;61177;-75
2022/12/10 10:48:08;;;;;;;21.30;10.90;;;;;;;-0.31;91.00;100337.29;105027;1290;74034;-76
2022/12/10 10:50:41;;;;;;;19.70;10.70;;;;;;;-0.32;90.97;100334.89;103860;1293;71462;-75
2022/12/10 10:53:25;;;;;;;22.10;11.60;;;;;;;-0.30;91.14;100338.22;103970;1298;72469;-75
2022/12/10 10:55:54;;;;;;;22.40;11.80;;;;;;;-0.24;91.47;100339.73;104783;1295;59632;-75
2022/12/10 10:58:22;;;;;;;22.90;11.90;;;;;;;-0.21;91.16;100343.34;103662;1299;61339;-75
2022/12/10 11:01:07;;;;;;;22.60;12.40;;;;;;;-0.21;90.92;100337.45;103897;1284;73128;-75
2022/12/10 11:03:36;;;;;;;22.50;12.10;;;;;;;-0.23;90.81;100336.49;104350;1297;70140;-74
2022/12/10 11:06:07;;;;;;;25.20;12.90;;;;;;;-0.21;91.07;100333.75;104958;1292;71213;-75
2022/12/10 11:08:37;;;;;;;24.90;13.40;;;;;;;-0.21;90.93;100333.55;104164;1293;59667;-75
2022/12/10 11:11:09;;;;;;;26.30;12.80;;;;;;;-0.19;91.19;100336.02;103940;1294;61231;-75
2022/12/10 11:13:37;;;;;;;25.90;12.20;;;;;;;-0.18;91.10;100337.69;104630;1301;73816;-75
2022/12/10 11:16:31;;;;;;;27.70;13.50;;;;;;;-0.17;91.22;100336.42;104308;1292;69140;-75
2022/12/10 11:19:04;;;;;;;23.90;11.90;;;;;;;-0.16;91.27;100338.92;104260;1293;71162;-75
2022/12/10 11:21:32;;;;;;;25.90;12.60;;;;;;;-0.14;91.18;100336.58;103686;1299;61324;-74
2022/12/10 11:24:03;;;;;;;25.50;12.40;;;;;;;-0.14;91.08;100339.88;104720;1299;60385;-75
2022/12/10 11:26:55;;;;;;;27.50;12.80;;;;;;;-0.15;91.05;100335.59;104204;1288;73041;-74